createdAt,value
2017-06-14T00:00:44.957Z,0
2017-06-14T00:01:45.681Z,0
2017-06-14T00:02:46.402Z,0
2017-06-14T00:03:47.125Z,0
2017-06-14T00:04:47.845Z,0
2017-06-14T00:05:48.569Z,0
2017-06-14T00:06:49.311Z,0
2017-06-14T00:07:50.031Z,0
2017-06-14T00:08:50.751Z,0
2017-06-14T00:09:51.472Z,0
2017-06-14T00:10:52.192Z,0
2017-06-14T00:11:52.913Z,0
2017-06-14T00:12:53.636Z,0
2017-06-14T00:13:54.356Z,0
2017-06-14T00:14:55.077Z,0
2017-06-14T00:15:55.821Z,0
2017-06-14T00:16:56.566Z,0
2017-06-14T00:17:57.284Z,0
2017-06-14T00:18:58.005Z,0
2017-06-14T00:19:58.727Z,0
2017-06-14T00:20:59.447Z,0
2017-06-14T00:22:00.193Z,0
2017-06-14T00:23:00.915Z,0
2017-06-14T00:24:01.637Z,0
2017-06-14T00:25:02.356Z,0
2017-06-14T00:26:03.076Z,0
2017-06-14T00:27:03.799Z,0
2017-06-14T00:28:04.518Z,0
2017-06-14T00:29:05.243Z,0
2017-06-14T00:30:05.991Z,0
2017-06-14T00:31:06.741Z,0
2017-06-14T00:32:07.489Z,0
2017-06-14T00:33:08.212Z,0
2017-06-14T00:34:08.933Z,0
2017-06-14T00:35:09.656Z,0
2017-06-14T00:36:10.377Z,0
2017-06-14T00:37:11.100Z,0
2017-06-14T00:38:11.850Z,0
2017-06-14T00:39:12.573Z,0
2017-06-14T00:40:13.296Z,0
2017-06-14T00:41:14.018Z,0
2017-06-14T00:42:14.744Z,0
2017-06-14T00:43:15.470Z,0
2017-06-14T00:44:16.187Z,0
2017-06-14T00:45:16.909Z,0
2017-06-14T00:46:17.632Z,0
2017-06-14T00:47:18.356Z,0
2017-06-14T00:48:19.078Z,0
2017-06-14T00:49:19.799Z,0
2017-06-14T00:50:20.523Z,0
2017-06-14T00:51:21.245Z,0
2017-06-14T00:52:21.965Z,0
2017-06-14T00:53:22.714Z,0
2017-06-14T00:54:23.437Z,0
2017-06-14T00:55:24.185Z,0
2017-06-14T00:56:24.908Z,0
2017-06-14T00:57:25.631Z,0
2017-06-14T00:58:26.353Z,0
2017-06-14T00:59:27.075Z,0
2017-06-14T01:00:27.797Z,0
2017-06-14T01:01:28.519Z,0
2017-06-14T01:02:29.242Z,0
2017-06-14T01:03:29.966Z,0
2017-06-14T01:04:30.711Z,0
2017-06-14T01:05:31.436Z,0
2017-06-14T01:06:32.162Z,0
2017-06-14T01:07:32.909Z,0
2017-06-14T01:08:33.631Z,0
2017-06-14T01:09:34.352Z,0
2017-06-14T01:10:35.077Z,0
2017-06-14T01:11:35.827Z,0
2017-06-14T01:12:36.550Z,0
2017-06-14T01:13:37.273Z,0
2017-06-14T01:14:37.996Z,0
2017-06-14T01:15:38.721Z,0
2017-06-14T01:16:39.442Z,0
2017-06-14T01:17:40.166Z,0
2017-06-14T01:18:40.890Z,0
2017-06-14T01:19:41.639Z,0
2017-06-14T01:20:42.360Z,0
2017-06-14T01:21:43.085Z,0
2017-06-14T01:22:43.807Z,0
2017-06-14T01:23:44.530Z,0
2017-06-14T01:24:45.253Z,0
2017-06-14T01:25:45.974Z,0
2017-06-14T01:26:46.698Z,0
2017-06-14T01:27:47.419Z,0
2017-06-14T01:28:48.143Z,0
2017-06-14T01:29:48.866Z,0
2017-06-14T01:30:49.589Z,0
2017-06-14T01:31:50.313Z,0
2017-06-14T01:32:51.034Z,0
2017-06-14T01:33:51.758Z,0
2017-06-14T01:34:52.479Z,0
2017-06-14T01:35:53.206Z,0
2017-06-14T01:36:53.926Z,0
2017-06-14T01:37:54.654Z,0
2017-06-14T01:38:55.373Z,0
2017-06-14T01:39:56.095Z,0
2017-06-14T01:40:56.817Z,0
2017-06-14T01:41:57.542Z,0
2017-06-14T01:42:58.266Z,0
2017-06-14T01:43:58.988Z,0
2017-06-14T01:44:59.708Z,0
2017-06-14T01:46:00.457Z,0
2017-06-14T01:47:01.176Z,0
2017-06-14T01:48:01.903Z,0
2017-06-14T01:49:02.625Z,0
2017-06-14T01:50:03.347Z,0
2017-06-14T01:51:04.070Z,0
2017-06-14T01:52:04.819Z,0
2017-06-14T01:53:05.541Z,0
2017-06-14T01:54:06.266Z,0
2017-06-14T01:55:06.988Z,0
2017-06-14T01:56:07.711Z,0
2017-06-14T01:57:08.434Z,0
2017-06-14T01:58:09.156Z,0
2017-06-14T01:59:09.904Z,0
2017-06-14T02:00:10.628Z,0
2017-06-14T02:01:11.349Z,0
2017-06-14T02:02:12.069Z,0
2017-06-14T02:03:12.794Z,0
2017-06-14T02:04:13.518Z,0
2017-06-14T02:05:14.242Z,0
2017-06-14T02:06:14.962Z,0
2017-06-14T02:07:15.685Z,0
2017-06-14T02:08:16.407Z,0
2017-06-14T02:09:17.133Z,0
2017-06-14T02:10:17.856Z,0
2017-06-14T02:11:18.579Z,0
2017-06-14T02:12:19.300Z,0
2017-06-14T02:13:20.024Z,0
2017-06-14T02:14:20.773Z,0
2017-06-14T02:15:21.497Z,0
2017-06-14T02:16:22.222Z,0
2017-06-14T02:17:22.944Z,0
2017-06-14T02:18:23.668Z,0
2017-06-14T02:19:24.389Z,0
2017-06-14T02:20:25.117Z,0
2017-06-14T02:21:25.834Z,0
2017-06-14T02:22:26.559Z,0
2017-06-14T02:23:27.279Z,0
2017-06-14T02:24:28.004Z,0
2017-06-14T02:25:28.726Z,0
2017-06-14T02:26:29.449Z,0
2017-06-14T02:27:30.177Z,4
2017-06-14T02:28:30.919Z,4
2017-06-14T02:29:31.644Z,0
2017-06-14T02:30:32.367Z,0
2017-06-14T02:31:33.089Z,4
2017-06-14T02:32:33.811Z,4
2017-06-14T02:33:34.559Z,4
2017-06-14T02:34:35.284Z,4
2017-06-14T02:35:36.005Z,8
2017-06-14T02:36:36.729Z,4
2017-06-14T02:37:37.452Z,8
2017-06-14T02:38:38.173Z,8
2017-06-14T02:39:38.918Z,8
2017-06-14T02:40:39.639Z,8
2017-06-14T02:41:40.361Z,8
2017-06-14T02:42:41.089Z,12
2017-06-14T02:43:41.815Z,12
2017-06-14T02:44:42.538Z,16
2017-06-14T02:45:43.259Z,16
2017-06-14T02:46:43.984Z,20
2017-06-14T02:47:44.708Z,20
2017-06-14T02:48:45.458Z,20
2017-06-14T02:49:46.184Z,24
2017-06-14T02:50:46.907Z,28
2017-06-14T02:51:47.633Z,32
2017-06-14T02:52:48.351Z,36
2017-06-14T02:53:49.076Z,40
2017-06-14T02:54:49.800Z,44
2017-06-14T02:55:50.524Z,52
2017-06-14T02:56:51.246Z,56
2017-06-14T02:57:51.970Z,60
2017-06-14T02:58:52.691Z,64
2017-06-14T02:59:53.415Z,72
2017-06-14T03:00:54.138Z,76
2017-06-14T03:01:54.859Z,88
2017-06-14T03:02:55.605Z,92
2017-06-14T03:03:56.331Z,104
2017-06-14T03:04:57.057Z,112
2017-06-14T03:05:57.796Z,120
2017-06-14T03:06:58.509Z,128
2017-06-14T03:07:59.235Z,140
2017-06-14T03:08:59.959Z,152
2017-06-14T03:10:00.710Z,160
2017-06-14T03:11:01.437Z,176
2017-06-14T03:12:02.158Z,184
2017-06-14T03:13:02.886Z,200
2017-06-14T03:14:03.610Z,208
2017-06-14T03:15:04.334Z,224
2017-06-14T03:16:05.057Z,236
2017-06-14T03:17:05.784Z,248
2017-06-14T03:18:06.533Z,260
2017-06-14T03:19:07.257Z,276
2017-06-14T03:20:07.984Z,288
2017-06-14T03:21:08.709Z,304
2017-06-14T03:22:09.437Z,320
2017-06-14T03:23:10.187Z,332
2017-06-14T03:24:10.913Z,348
2017-06-14T03:25:11.638Z,368
2017-06-14T03:26:12.365Z,384
2017-06-14T03:27:13.091Z,404
2017-06-14T03:28:13.819Z,424
2017-06-14T03:29:14.545Z,444
2017-06-14T03:30:15.270Z,464
2017-06-14T03:31:15.998Z,484
2017-06-14T03:32:16.724Z,504
2017-06-14T03:33:17.447Z,524
2017-06-14T03:34:18.175Z,544
2017-06-14T03:35:18.900Z,568
2017-06-14T03:36:19.624Z,592
2017-06-14T03:37:20.350Z,612
2017-06-14T03:38:21.077Z,632
2017-06-14T03:39:21.800Z,648
2017-06-14T03:40:22.528Z,664
2017-06-14T03:41:23.254Z,676
2017-06-14T03:42:23.977Z,692
2017-06-14T03:43:24.705Z,708
2017-06-14T03:44:25.428Z,724
2017-06-14T03:45:26.176Z,744
2017-06-14T03:46:26.957Z,764
2017-06-14T03:47:27.653Z,784
2017-06-14T03:48:28.378Z,800
2017-06-14T03:49:29.103Z,816
2017-06-14T03:50:29.828Z,832
2017-06-14T03:51:30.554Z,848
2017-06-14T03:52:31.280Z,864
2017-06-14T03:53:32.005Z,880
2017-06-14T03:54:32.732Z,888
2017-06-14T03:55:33.458Z,908
2017-06-14T03:56:34.183Z,920
2017-06-14T03:57:34.910Z,940
2017-06-14T03:58:35.660Z,952
2017-06-14T03:59:36.389Z,968
2017-06-14T04:00:37.115Z,976
2017-06-14T04:01:37.839Z,988
2017-06-14T04:02:38.569Z,1000
2017-06-14T04:03:39.294Z,1024
2017-06-14T04:04:40.023Z,1036
2017-06-14T04:05:40.748Z,1048
2017-06-14T04:06:41.476Z,1052
2017-06-14T04:07:42.199Z,1060
2017-06-14T04:08:42.929Z,1072
2017-06-14T04:09:43.680Z,1092
2017-06-14T04:10:44.433Z,1112
2017-06-14T04:11:45.162Z,1136
2017-06-14T04:12:45.888Z,1152
2017-06-14T04:13:46.614Z,1176
2017-06-14T04:14:47.343Z,1212
2017-06-14T04:15:48.069Z,1236
2017-06-14T04:16:48.798Z,1272
2017-06-14T04:17:49.523Z,1308
2017-06-14T04:18:50.251Z,1352
2017-06-14T04:19:51.003Z,1376
2017-06-14T04:20:51.731Z,1392
2017-06-14T04:21:52.463Z,1408
2017-06-14T04:22:53.192Z,1424
2017-06-14T04:23:53.919Z,1452
2017-06-14T04:24:54.668Z,1480
2017-06-14T04:25:55.421Z,1484
2017-06-14T04:26:56.175Z,1500
2017-06-14T04:27:56.903Z,1516
2017-06-14T04:28:57.634Z,1544
2017-06-14T04:29:58.360Z,1556
2017-06-14T04:30:59.090Z,1584
2017-06-14T04:31:59.817Z,1600
2017-06-14T04:33:00.545Z,1612
2017-06-14T04:34:01.272Z,1620
2017-06-14T04:35:02.002Z,1632
2017-06-14T04:36:02.728Z,1632
2017-06-14T04:37:03.462Z,1652
2017-06-14T04:38:04.188Z,1676
2017-06-14T04:39:04.917Z,1684
2017-06-14T04:40:05.643Z,1692
2017-06-14T04:41:06.396Z,1700
2017-06-14T04:42:07.126Z,1708
2017-06-14T04:43:07.854Z,1708
2017-06-14T04:44:08.584Z,1720
2017-06-14T04:45:09.313Z,1732
2017-06-14T04:46:10.045Z,1748
2017-06-14T04:47:10.769Z,1764
2017-06-14T04:48:11.500Z,1776
2017-06-14T04:49:12.227Z,1788
2017-06-14T04:50:12.957Z,1804
2017-06-14T04:51:13.687Z,1820
2017-06-14T04:52:14.416Z,1828
2017-06-14T04:53:15.145Z,1840
2017-06-14T04:54:15.876Z,1844
2017-06-14T04:55:16.606Z,1856
2017-06-14T04:56:17.334Z,1864
2017-06-14T04:57:18.064Z,1876
2017-06-14T04:58:18.794Z,1884
2017-06-14T04:59:19.548Z,1896
2017-06-14T05:00:20.280Z,1900
2017-06-14T05:01:21.008Z,1916
2017-06-14T05:02:21.734Z,1928
2017-06-14T05:03:22.465Z,1936
2017-06-14T05:04:23.193Z,1948
2017-06-14T05:05:23.922Z,1956
2017-06-14T05:06:24.652Z,1964
2017-06-14T05:07:25.379Z,1972
2017-06-14T05:08:26.110Z,1988
2017-06-14T05:09:26.839Z,1996
2017-06-14T05:10:27.571Z,2008
2017-06-14T05:11:28.298Z,2024
2017-06-14T05:12:29.027Z,2032
2017-06-14T05:13:29.760Z,2040
2017-06-14T05:14:30.491Z,2052
2017-06-14T05:15:31.223Z,2060
2017-06-14T05:16:31.952Z,2072
2017-06-14T05:17:32.682Z,2072
2017-06-14T05:18:33.438Z,2088
2017-06-14T05:19:34.166Z,2100
2017-06-14T05:20:34.897Z,2108
2017-06-14T05:21:35.629Z,2120
2017-06-14T05:22:36.358Z,2128
2017-06-14T05:23:37.089Z,2140
2017-06-14T05:24:37.821Z,2148
2017-06-14T05:25:38.550Z,2164
2017-06-14T05:26:39.279Z,2172
2017-06-14T05:27:40.010Z,2180
2017-06-14T05:28:40.740Z,2180
2017-06-14T05:29:41.468Z,2192
2017-06-14T05:30:42.226Z,2204
2017-06-14T05:31:42.959Z,2216
2017-06-14T05:32:43.687Z,2228
2017-06-14T05:33:44.444Z,2236
2017-06-14T05:34:45.172Z,2252
2017-06-14T05:35:45.904Z,2260
2017-06-14T05:36:46.636Z,2268
2017-06-14T05:37:47.369Z,2272
2017-06-14T05:38:48.098Z,2284
2017-06-14T05:39:48.830Z,2284
2017-06-14T05:40:49.559Z,2288
2017-06-14T05:41:50.289Z,2292
2017-06-14T05:42:51.019Z,2312
2017-06-14T05:43:51.748Z,2324
2017-06-14T05:44:52.481Z,2328
2017-06-14T05:45:53.209Z,2332
2017-06-14T05:46:53.938Z,2344
2017-06-14T05:47:54.671Z,2356
2017-06-14T05:48:55.401Z,2364
2017-06-14T05:49:56.129Z,2380
2017-06-14T05:50:56.862Z,2388
2017-06-14T05:51:57.593Z,2396
2017-06-14T05:52:58.321Z,2404
2017-06-14T05:53:59.052Z,2416
2017-06-14T05:54:59.779Z,2424
2017-06-14T05:56:00.511Z,2428
2017-06-14T05:57:01.241Z,2448
2017-06-14T05:58:01.969Z,2460
2017-06-14T05:59:02.698Z,2468
2017-06-14T06:00:03.430Z,2488
2017-06-14T06:01:04.161Z,2496
2017-06-14T06:02:04.893Z,2504
2017-06-14T06:03:05.622Z,2516
2017-06-14T06:04:06.355Z,2528
2017-06-14T06:05:07.086Z,2544
2017-06-14T06:06:07.816Z,2556
2017-06-14T06:07:08.545Z,2576
2017-06-14T06:08:09.275Z,2584
2017-06-14T06:09:10.005Z,2584
2017-06-14T06:10:10.738Z,2596
2017-06-14T06:11:11.496Z,2604
2017-06-14T06:12:12.225Z,2624
2017-06-14T06:13:12.956Z,2648
2017-06-14T06:14:13.683Z,2668
2017-06-14T06:15:14.418Z,2684
2017-06-14T06:16:15.151Z,2692
2017-06-14T06:17:15.879Z,2692
2017-06-14T06:18:16.613Z,2708
2017-06-14T06:19:17.338Z,2720
2017-06-14T06:20:18.071Z,2740
2017-06-14T06:21:18.828Z,2748
2017-06-14T06:22:19.562Z,2748
2017-06-14T06:23:20.289Z,2748
2017-06-14T06:24:21.018Z,2752
2017-06-14T06:25:21.752Z,2772
2017-06-14T06:26:22.480Z,2792
2017-06-14T06:27:23.209Z,2804
2017-06-14T06:28:23.942Z,2816
2017-06-14T06:29:24.671Z,2836
2017-06-14T06:30:25.427Z,2856
2017-06-14T06:31:26.156Z,2868
2017-06-14T06:32:26.887Z,2860
2017-06-14T06:33:27.620Z,2852
2017-06-14T06:34:28.349Z,2856
2017-06-14T06:35:29.079Z,2868
2017-06-14T06:36:29.806Z,2872
2017-06-14T06:37:30.540Z,2880
2017-06-14T06:38:31.273Z,2904
2017-06-14T06:39:32.002Z,2904
2017-06-14T06:40:32.732Z,2928
2017-06-14T06:41:33.462Z,2964
2017-06-14T06:42:34.190Z,2952
2017-06-14T06:43:34.923Z,2968
2017-06-14T06:44:35.653Z,2980
2017-06-14T06:45:36.385Z,2984
2017-06-14T06:46:37.118Z,2992
2017-06-14T06:47:37.847Z,2988
2017-06-14T06:48:38.574Z,3008
2017-06-14T06:49:39.304Z,3020
2017-06-14T06:50:40.035Z,3044
2017-06-14T06:51:40.766Z,3092
2017-06-14T06:52:41.497Z,3136
2017-06-14T06:53:42.226Z,3184
2017-06-14T06:54:42.956Z,3240
2017-06-14T06:55:43.689Z,3288
2017-06-14T06:56:44.420Z,3348
2017-06-14T06:57:45.152Z,3428
2017-06-14T06:58:45.884Z,3536
2017-06-14T06:59:46.614Z,3680
2017-06-14T07:00:47.344Z,3840
2017-06-14T07:01:48.073Z,4028
2017-06-14T07:02:48.804Z,4240
2017-06-14T07:03:49.537Z,4408
2017-06-14T07:04:50.269Z,4536
2017-06-14T07:05:51.001Z,4684
2017-06-14T07:06:51.757Z,4980
2017-06-14T07:07:52.489Z,5268
2017-06-14T07:08:53.220Z,5588
2017-06-14T07:09:53.952Z,5696
2017-06-14T07:10:54.684Z,5644
2017-06-14T07:11:55.415Z,5704
2017-06-14T07:12:56.146Z,5748
2017-06-14T07:13:56.875Z,5764
2017-06-14T07:14:57.607Z,5732
2017-06-14T07:15:58.337Z,5708
2017-06-14T07:16:59.070Z,5688
2017-06-14T07:17:59.803Z,5752
2017-06-14T07:19:00.535Z,5708
2017-06-14T07:20:01.264Z,5588
2017-06-14T07:21:01.994Z,5476
2017-06-14T07:22:02.726Z,5444
2017-06-14T07:23:03.455Z,5408
2017-06-14T07:24:04.187Z,5532
2017-06-14T07:25:04.918Z,5516
2017-06-14T07:26:05.674Z,5556
2017-06-14T07:27:06.407Z,5600
2017-06-14T07:28:07.134Z,5584
2017-06-14T07:29:07.865Z,5588
2017-06-14T07:30:08.599Z,5564
2017-06-14T07:31:09.329Z,5508
2017-06-14T07:32:10.062Z,5440
2017-06-14T07:33:10.792Z,5412
2017-06-14T07:34:11.525Z,5436
2017-06-14T07:35:12.258Z,5432
2017-06-14T07:36:12.989Z,5400
2017-06-14T07:37:13.718Z,5364
2017-06-14T07:38:14.449Z,5324
2017-06-14T07:39:15.181Z,5224
2017-06-14T07:40:15.913Z,5068
2017-06-14T07:41:16.648Z,5184
2017-06-14T07:42:17.376Z,5200
2017-06-14T07:43:18.107Z,5156
2017-06-14T07:44:18.840Z,5136
2017-06-14T07:45:19.573Z,5108
2017-06-14T07:46:20.306Z,5108
2017-06-14T07:47:21.063Z,5116
2017-06-14T07:48:21.795Z,5100
2017-06-14T07:49:22.527Z,5088
2017-06-14T07:50:23.261Z,5120
2017-06-14T07:51:23.994Z,5132
2017-06-14T07:52:24.752Z,5188
2017-06-14T07:53:25.486Z,5256
2017-06-14T07:54:26.246Z,5252
2017-06-14T07:55:26.984Z,5248
2017-06-14T07:56:27.714Z,5252
2017-06-14T07:57:28.450Z,5252
2017-06-14T07:58:29.192Z,5432
2017-06-14T07:59:29.927Z,5268
2017-06-14T08:00:30.667Z,5472
2017-06-14T08:01:31.403Z,5536
2017-06-14T08:02:32.141Z,5512
2017-06-14T08:03:32.884Z,6480
2017-06-14T08:04:33.624Z,10628
2017-06-14T08:05:34.390Z,48352
2017-06-14T08:06:35.133Z,76320
2017-06-14T08:07:35.877Z,79616
2017-06-14T08:08:36.617Z,81248
2017-06-14T08:09:37.360Z,82848
2017-06-14T08:10:38.105Z,81472
2017-06-14T08:11:38.853Z,82112
2017-06-14T08:12:39.599Z,82624
2017-06-14T08:13:40.344Z,81856
2017-06-14T08:14:41.090Z,81216
2017-06-14T08:15:41.834Z,80544
2017-06-14T08:16:42.580Z,83072
2017-06-14T08:17:43.329Z,82784
2017-06-14T08:18:44.071Z,83104
2017-06-14T08:19:44.823Z,80640
2017-06-14T08:20:45.594Z,80960
2017-06-14T08:21:46.338Z,85760
2017-06-14T08:22:47.082Z,87840
2017-06-14T08:23:47.828Z,89760
2017-06-14T08:24:48.574Z,87680
2017-06-14T08:25:49.316Z,84416
2017-06-14T08:26:50.061Z,84160
2017-06-14T08:27:50.803Z,83616
2017-06-14T08:28:51.551Z,82560
2017-06-14T08:29:52.296Z,81952
2017-06-14T08:30:53.040Z,81120
2017-06-14T08:31:53.786Z,82816
2017-06-14T08:32:54.528Z,79808
2017-06-14T08:33:55.273Z,77696
2017-06-14T08:34:56.042Z,77664
2017-06-14T08:35:56.786Z,79552
2017-06-14T08:36:57.533Z,79616
2017-06-14T08:37:58.277Z,80032
2017-06-14T08:38:59.022Z,80416
2017-06-14T08:39:59.768Z,87200
2017-06-14T08:41:00.512Z,87104
2017-06-14T08:42:01.260Z,87616
2017-06-14T08:43:02.006Z,90464
2017-06-14T08:44:02.751Z,91296
2017-06-14T08:45:03.499Z,91392
2017-06-14T08:46:04.243Z,89856
2017-06-14T08:47:04.988Z,88800
2017-06-14T08:48:05.734Z,86816
2017-06-14T08:49:06.482Z,86208
2017-06-14T08:50:07.227Z,90112
2017-06-14T08:51:07.973Z,89088
2017-06-14T08:52:08.719Z,93376
2017-06-14T08:53:09.464Z,94464
2017-06-14T08:54:10.213Z,94464
2017-06-14T08:55:10.961Z,97728
2017-06-14T08:56:11.734Z,92544
2017-06-14T08:57:12.481Z,94816
2017-06-14T08:58:13.231Z,90592
2017-06-14T08:59:13.976Z,94592
2017-06-14T09:00:14.722Z,93632
2017-06-14T09:01:15.470Z,95456
2017-06-14T09:02:16.219Z,96864
2017-06-14T09:03:16.968Z,93152
2017-06-14T09:04:17.717Z,93280
2017-06-14T09:05:18.467Z,97152
2017-06-14T09:06:19.215Z,94080
2017-06-14T09:07:19.973Z,92864
2017-06-14T09:08:20.723Z,92960
2017-06-14T09:09:21.476Z,96256
2017-06-14T09:10:22.227Z,98464
2017-06-14T09:11:22.983Z,96032
2017-06-14T09:12:23.736Z,99456
2017-06-14T09:13:24.515Z,100064
2017-06-14T09:14:25.270Z,97696
2017-06-14T09:15:26.047Z,94048
2017-06-14T09:16:26.804Z,91296
2017-06-14T09:17:27.561Z,89184
2017-06-14T09:18:28.315Z,90272
2017-06-14T09:19:29.076Z,88448
2017-06-14T09:20:29.831Z,89760
2017-06-14T09:21:30.583Z,91040
2017-06-14T09:22:31.343Z,88928
2017-06-14T09:23:32.100Z,91008
2017-06-14T09:24:32.884Z,90496
2017-06-14T09:25:33.641Z,91584
2017-06-14T09:26:34.396Z,94944
2017-06-14T09:27:35.151Z,93664
2017-06-14T09:28:35.906Z,97920
2017-06-14T09:29:36.663Z,94336
2017-06-14T09:30:37.420Z,98496
2017-06-14T09:31:38.180Z,96160
2017-06-14T09:32:38.960Z,97216
2017-06-14T09:33:39.722Z,99328
2017-06-14T09:34:40.478Z,99328
2017-06-14T09:35:41.232Z,102304
2017-06-14T09:36:41.989Z,96928
2017-06-14T09:37:42.742Z,95072
2017-06-14T09:38:43.493Z,95200
2017-06-14T09:39:44.246Z,96000
2017-06-14T09:40:45.004Z,99296
2017-06-14T09:41:45.758Z,95776
2017-06-14T09:42:46.511Z,96128
2017-06-14T09:43:47.266Z,102112
2017-06-14T09:44:48.047Z,101216
2017-06-14T09:45:48.803Z,99808
2017-06-14T09:46:49.557Z,102432
2017-06-14T09:47:50.309Z,98752
2017-06-14T09:48:51.064Z,100032
2017-06-14T09:49:51.817Z,100000
2017-06-14T09:50:52.573Z,95936
2017-06-14T09:51:53.329Z,95936
2017-06-14T09:52:54.347Z,101536
2017-06-14T09:53:55.103Z,97664
2017-06-14T09:54:55.852Z,94784
2017-06-14T09:55:56.603Z,99456
2017-06-14T09:56:57.357Z,97760
2017-06-14T09:57:58.110Z,98144
2017-06-14T09:58:58.868Z,100096
2017-06-14T09:59:59.625Z,100640
2017-06-14T10:01:00.382Z,101024
2017-06-14T10:02:01.139Z,101120
2017-06-14T10:03:01.892Z,103008
2017-06-14T10:04:02.645Z,100224
2017-06-14T10:05:03.404Z,100000
2017-06-14T10:06:04.159Z,102688
2017-06-14T10:07:04.911Z,99936
2017-06-14T10:08:05.666Z,97760
2017-06-14T10:09:06.420Z,99712
2017-06-14T10:10:07.174Z,99008
2017-06-14T10:11:07.932Z,102688
2017-06-14T10:12:08.690Z,106560
2017-06-14T10:13:09.446Z,113984
2017-06-14T10:14:10.203Z,105504
2017-06-14T10:15:10.953Z,98816
2017-06-14T10:16:11.710Z,97504
2017-06-14T10:17:12.463Z,85184
2017-06-14T10:18:13.215Z,89824
2017-06-14T10:19:13.969Z,113824
2017-06-14T10:20:14.747Z,97856
2017-06-14T10:21:15.502Z,78144
2017-06-14T10:22:16.255Z,91904
2017-06-14T10:23:17.011Z,88416
2017-06-14T10:24:17.775Z,86048
2017-06-14T10:25:18.529Z,91296
2017-06-14T10:26:19.280Z,96416
2017-06-14T10:27:20.036Z,101376
2017-06-14T10:28:20.791Z,103296
2017-06-14T10:29:21.546Z,109344
2017-06-14T10:30:22.305Z,109760
2017-06-14T10:31:23.086Z,105120
2017-06-14T10:32:23.840Z,99328
2017-06-14T10:33:24.594Z,97408
2017-06-14T10:34:25.352Z,101120
2017-06-14T10:35:26.109Z,100032
2017-06-14T10:36:26.860Z,95744
2017-06-14T10:37:27.612Z,101312
2017-06-14T10:38:28.368Z,100640
2017-06-14T10:39:29.119Z,97952
2017-06-14T10:40:29.873Z,101120
2017-06-14T10:41:30.627Z,106976
2017-06-14T10:42:31.378Z,104704
2017-06-14T10:43:32.129Z,103744
2017-06-14T10:44:32.883Z,100576
2017-06-14T10:45:33.637Z,101472
2017-06-14T10:46:34.391Z,101376
2017-06-14T10:47:35.144Z,94976
2017-06-14T10:48:35.897Z,96608
2017-06-14T10:49:36.651Z,97408
2017-06-14T10:50:37.428Z,97344
2017-06-14T10:51:38.184Z,96192
2017-06-14T10:52:38.933Z,96256
2017-06-14T10:53:39.684Z,104800
2017-06-14T10:54:40.436Z,104992
2017-06-14T10:55:41.188Z,91616
2017-06-14T10:56:41.941Z,102432
2017-06-14T10:57:42.692Z,121888
2017-06-14T10:58:43.445Z,101792
2017-06-14T10:59:44.196Z,83104
2017-06-14T11:00:44.975Z,92576
2017-06-14T11:01:45.727Z,106976
2017-06-14T11:02:46.478Z,105504
2017-06-14T11:03:47.232Z,98848
2017-06-14T11:04:47.989Z,100544
2017-06-14T11:05:48.740Z,104736
2017-06-14T11:06:49.495Z,102944
2017-06-14T11:07:50.248Z,96544
2017-06-14T11:08:51.004Z,97216
2017-06-14T11:09:51.783Z,99328
2017-06-14T11:10:52.536Z,92032
2017-06-14T11:11:53.293Z,94752
2017-06-14T11:12:54.042Z,103040
2017-06-14T11:13:54.796Z,99072
2017-06-14T11:14:55.550Z,102080
2017-06-14T11:15:56.329Z,100896
2017-06-14T11:16:57.078Z,98432
2017-06-14T11:17:57.831Z,97888
2017-06-14T11:18:58.582Z,95936
2017-06-14T11:19:59.331Z,96896
2017-06-14T11:21:00.081Z,98560
2017-06-14T11:22:00.839Z,100320
2017-06-14T11:23:01.591Z,93568
2017-06-14T11:24:02.342Z,93184
2017-06-14T11:25:03.093Z,88672
2017-06-14T11:26:03.843Z,91200
2017-06-14T11:27:04.595Z,88288
2017-06-14T11:28:05.348Z,88768
2017-06-14T11:29:06.099Z,90144
2017-06-14T11:30:06.849Z,92672
2017-06-14T11:31:07.606Z,90592
2017-06-14T11:32:08.359Z,87680
2017-06-14T11:33:09.139Z,70880
2017-06-14T11:34:09.890Z,90208
2017-06-14T11:35:10.643Z,122912
2017-06-14T11:36:11.421Z,98464
2017-06-14T11:37:12.175Z,79616
2017-06-14T11:38:12.927Z,103104
2017-06-14T11:39:13.683Z,110880
2017-06-14T11:40:14.430Z,99680
2017-06-14T11:41:15.182Z,94912
2017-06-14T11:42:15.931Z,97344
2017-06-14T11:43:16.684Z,95680
2017-06-14T11:44:17.436Z,94432
2017-06-14T11:45:18.187Z,95232
2017-06-14T11:46:18.938Z,94496
2017-06-14T11:47:19.690Z,95520
2017-06-14T11:48:20.442Z,93632
2017-06-14T11:49:21.193Z,96032
2017-06-14T11:50:21.944Z,95872
2017-06-14T11:51:22.697Z,95424
2017-06-14T11:52:23.449Z,94976
2017-06-14T11:53:24.198Z,97024
2017-06-14T11:54:24.953Z,98560
2017-06-14T11:55:25.706Z,95840
2017-06-14T11:56:26.458Z,91648
2017-06-14T11:57:27.210Z,88480
2017-06-14T11:58:27.965Z,90464
2017-06-14T11:59:28.713Z,86496
2017-06-14T12:00:29.463Z,83648
2017-06-14T12:01:30.216Z,73536
2017-06-14T12:02:30.968Z,84064
2017-06-14T12:03:31.721Z,105024
2017-06-14T12:04:32.472Z,99392
2017-06-14T12:05:33.221Z,84000
2017-06-14T12:06:33.997Z,92544
2017-06-14T12:07:34.746Z,96416
2017-06-14T12:08:35.499Z,92320
2017-06-14T12:09:36.250Z,90240
2017-06-14T12:10:37.001Z,86624
2017-06-14T12:11:37.757Z,92352
2017-06-14T12:12:38.509Z,92864
2017-06-14T12:13:39.262Z,93120
2017-06-14T12:14:40.010Z,96288
2017-06-14T12:15:40.759Z,95008
2017-06-14T12:16:41.511Z,88608
2017-06-14T12:17:42.262Z,94144
2017-06-14T12:18:43.013Z,93728
2017-06-14T12:19:43.763Z,96512
2017-06-14T12:20:44.512Z,95680
2017-06-14T12:21:45.266Z,90368
2017-06-14T12:22:46.019Z,96032
2017-06-14T12:23:46.769Z,94880
2017-06-14T12:24:47.523Z,92928
2017-06-14T12:25:48.301Z,96384
2017-06-14T12:26:49.052Z,85216
2017-06-14T12:27:49.802Z,96768
2017-06-14T12:28:50.554Z,91264
2017-06-14T12:29:51.305Z,90912
2017-06-14T12:30:52.083Z,93184
2017-06-14T12:31:52.837Z,98400
2017-06-14T12:32:53.585Z,96960
2017-06-14T12:33:54.337Z,94368
2017-06-14T12:34:55.086Z,95296
2017-06-14T12:35:55.840Z,98432
2017-06-14T12:36:56.591Z,92736
2017-06-14T12:37:57.343Z,88480
2017-06-14T12:38:58.096Z,90400
2017-06-14T12:39:58.845Z,95328
2017-06-14T12:40:59.595Z,94560
2017-06-14T12:42:00.350Z,90816
2017-06-14T12:43:01.105Z,93952
2017-06-14T12:44:01.854Z,92352
2017-06-14T12:45:02.605Z,96608
2017-06-14T12:46:03.357Z,97216
2017-06-14T12:47:04.132Z,94656
2017-06-14T12:48:04.881Z,89056
2017-06-14T12:49:05.633Z,95072
2017-06-14T12:50:06.383Z,94176
2017-06-14T12:51:07.138Z,93440
2017-06-14T12:52:07.889Z,90752
2017-06-14T12:53:08.643Z,86336
2017-06-14T12:54:09.394Z,83168
2017-06-14T12:55:10.146Z,80544
2017-06-14T12:56:10.899Z,83712
2017-06-14T12:57:11.654Z,91456
2017-06-14T12:58:12.404Z,87840
2017-06-14T12:59:13.153Z,87712
2017-06-14T13:00:13.911Z,89472
2017-06-14T13:01:14.660Z,85728
2017-06-14T13:02:15.418Z,82816
2017-06-14T13:03:16.168Z,89088
2017-06-14T13:04:16.926Z,88128
2017-06-14T13:05:17.681Z,88096
2017-06-14T13:06:18.452Z,90976
2017-06-14T13:07:19.203Z,87520
2017-06-14T13:08:19.956Z,84352
2017-06-14T13:09:20.710Z,83584
2017-06-14T13:10:21.457Z,84256
2017-06-14T13:11:22.205Z,84224
2017-06-14T13:12:22.958Z,85632
2017-06-14T13:13:23.708Z,84736
2017-06-14T13:14:24.460Z,89056
2017-06-14T13:15:25.211Z,87872
2017-06-14T13:16:25.962Z,79296
2017-06-14T13:17:26.713Z,75360
2017-06-14T13:18:27.466Z,83040
2017-06-14T13:19:28.216Z,81664
2017-06-14T13:20:28.972Z,78944
2017-06-14T13:21:29.728Z,81664
2017-06-14T13:22:30.477Z,86880
2017-06-14T13:23:31.229Z,89376
2017-06-14T13:24:31.980Z,83552
2017-06-14T13:25:32.741Z,79936
2017-06-14T13:26:33.488Z,81760
2017-06-14T13:27:34.242Z,82784
2017-06-14T13:28:35.019Z,80544
2017-06-14T13:29:35.773Z,86784
2017-06-14T13:30:36.525Z,85440
2017-06-14T13:31:37.281Z,88320
2017-06-14T13:32:38.033Z,89184
2017-06-14T13:33:38.810Z,88608
2017-06-14T13:34:39.564Z,87648
2017-06-14T13:35:40.318Z,84160